Time;durP1;ratioP1;P1;durP2;ratioP2;P2;SDS_P1;SDS_P2;PMS_P1;PMS_P2;Temp;Humidity;BMP_temperature;BMP_pressure;BME280_temperature;BME280_humidity;BME280_pressure;Samples;Min_cycle;Max_cycle;Signal;HPM_P1;HPM_P2
2022/02/14 10:12:02;;;;;;;12.97;12.17;;;14.00;62.30;;;;;;5127787;27;20690;-77
2022/02/14 10:14:30;;;;;;;13.70;12.70;;;14.20;62.00;;;;;;5127675;27;20808;-77
2022/02/14 10:17:03;;;;;;;13.30;12.30;;;13.90;63.30;;;;;;5127760;27;20440;-77
2022/02/14 10:19:31;;;;;;;14.17;13.07;;;13.70;64.20;;;;;;5127916;27;20452;-77
2022/02/14 10:21:58;;;;;;;12.00;11.10;;;13.60;64.80;;;;;;5127621;27;20781;-78
2022/02/14 10:24:26;;;;;;;12.90;11.53;;;13.40;65.40;;;;;;5127565;27;20512;-78
2022/02/14 10:26:55;;;;;;;12.80;11.70;;;13.50;66.60;;;;;;5127833;27;20494;-77
2022/02/14 10:29:25;;;;;;;13.67;12.67;;;13.50;66.30;;;;;;5127374;27;20501;-78
2022/02/14 10:31:55;;;;;;;12.30;11.30;;;14.10;66.40;;;;;;5127401;27;20547;-78
2022/02/14 10:34:23;;;;;;;12.80;11.90;;;15.20;64.30;;;;;;5127425;27;20448;-78
2022/02/14 10:36:51;;;;;;;12.40;11.50;;;15.60;62.70;;;;;;5127747;27;20453;-78
2022/02/14 10:39:20;;;;;;;12.50;11.50;;;15.60;63.50;;;;;;5127830;27;20440;-77
2022/02/14 10:41:49;;;;;;;12.30;11.23;;;15.60;63.40;;;;;;5127608;27;20877;-77
2022/02/14 10:45:07;;;;;;;12.53;11.40;;;15.30;63.40;;;;;;5127345;27;20943;-77
2022/02/14 10:47:09;;;;;;;13.23;12.17;;;14.90;66.10;;;;;;5127502;28;20528;-77
2022/02/14 10:49:36;;;;;;;12.53;10.77;;;14.80;67.10;;;;;;5127249;27;20441;-77
2022/02/14 10:52:04;;;;;;;11.43;10.13;;;14.90;70.70;;;;;;5127376;27;20506;-77
2022/02/14 10:54:37;;;;;;;11.70;10.80;;;15.00;71.60;;;;;;5127344;27;20440;-77
2022/02/14 10:57:04;;;;;;;14.73;10.60;;;15.10;73.10;;;;;;5130005;27;20437;-77
2022/02/14 10:59:31;;;;;;;11.40;10.53;;;15.30;73.10;;;;;;5127149;27;20444;-76
2022/02/14 11:01:58;;;;;;;10.67;10.17;;;15.30;73.30;;;;;;5126990;27;20905;-78
2022/02/14 11:04:26;;;;;;;11.33;10.73;;;15.20;73.80;;;;;;5126783;27;20641;-78
2022/02/14 11:06:54;;;;;;;12.07;11.27;;;15.30;73.30;;;;;;5126916;27;20502;-78
2022/02/14 11:09:22;;;;;;;11.50;10.80;;;15.60;73.00;;;;;;5126989;27;20498;-77
2022/02/14 11:11:50;;;;;;;12.27;10.93;;;15.80;72.80;;;;;;5119623;27;20883;-77
2022/02/14 11:14:18;;;;;;;11.37;10.57;;;15.60;73.30;;;;;;5113309;28;20441;-77
2022/02/14 11:16:46;;;;;;;11.47;10.67;;;15.40;74.50;;;;;;5113069;28;20487;-77
2022/02/14 11:19:13;;;;;;;11.20;10.50;;;15.40;75.20;;;;;;5113027;28;20441;-77
2022/02/14 11:21:42;;;;;;;10.77;9.90;;;15.60;75.10;;;;;;5113136;28;20453;-76
2022/02/14 11:24:22;;;;;;;11.23;10.63;;;15.60;75.00;;;;;;5112657;28;20445;-76
2022/02/14 11:26:57;;;;;;;11.43;10.60;;;15.30;75.50;;;;;;5113120;28;20802;-76
2022/02/14 11:29:39;;;;;;;11.40;10.90;;;15.40;76.50;;;;;;5112782;28;20445;-75
2022/02/14 11:32:20;;;;;;;11.00;10.30;;;15.50;77.20;;;;;;5113022;28;20528;-77
2022/02/14 11:35:01;;;;;;;10.13;9.63;;;15.10;78.60;;;;;;5113001;28;20449;-76
2022/02/14 11:37:51;;;;;;;11.83;11.13;;;15.10;79.60;;;;;;5112702;28;20494;-78
2022/02/14 11:40:29;;;;;;;11.07;10.57;;;15.10;79.50;;;;;;5112951;28;20475;-77
2022/02/14 11:43:05;;;;;;;11.13;10.47;;;15.20;79.90;;;;;;5112521;27;20964;-76
2022/02/14 11:45:32;;;;;;;10.67;9.70;;;15.20;80.40;;;;;;5112735;27;20445;-76
2022/02/14 11:48:20;;;;;;;11.60;10.80;;;15.40;79.70;;;;;;5112338;28;20449;-76
2022/02/14 11:50:47;;;;;;;12.00;11.03;;;15.30;80.20;;;;;;5112450;28;20481;-77
2022/02/14 11:53:35;;;;;;;10.80;10.10;;;15.50;80.10;;;;;;5112095;27;20453;-78
2022/02/14 11:56:27;;;;;;;10.80;10.30;;;15.00;81.60;;;;;;5112618;27;20514;-77
2022/02/14 11:59:11;;;;;;;10.10;9.60;;;14.70;82.50;;;;;;5112266;28;20445;-77
2022/02/14 12:02:01;;;;;;;10.73;10.13;;;14.50;83.60;;;;;;5112274;28;20466;-79
2022/02/14 12:04:44;;;;;;;19.27;10.70;;;14.50;83.80;;;;;;5112078;28;20437;-78
2022/02/14 12:07:33;;;;;;;10.93;10.00;;;14.60;83.30;;;;;;5112066;28;20457;-77
2022/02/14 12:10:29;;;;;;;10.87;10.37;;;14.60;84.00;;;;;;5111802;28;21059;-76
2022/02/14 12:13:23;;;;;;;10.53;10.10;;;14.40;84.90;;;;;;5112030;28;20547;-77
2022/02/14 12:21:34;;;;;;;11.20;10.60;;;14.50;86.10;;;;;;5111867;28;20424;-78
2022/02/14 12:24:13;;;;;;;10.70;10.20;;;14.50;85.40;;;;;;5110765;28;20445;-77
2022/02/14 12:26:41;;;;;;;11.00;10.40;;;14.60;85.30;;;;;;5111569;28;20701;-78
2022/02/14 12:31:55;;;;;;;12.03;10.40;;;14.90;85.20;;;;;;5111450;28;20479;-78
2022/02/14 12:34:23;;;;;;;10.00;9.50;;;15.20;84.30;;;;;;5111520;28;20453;-76
2022/02/14 12:36:55;;;;;;;10.23;9.70;;;15.00;84.70;;;;;;5111703;28;20506;-75
2022/02/14 12:39:36;;;;;;;10.60;9.90;;;14.90;85.20;;;;;;5111406;28;20460;-77
2022/02/14 12:42:20;;;;;;;9.80;9.30;;;14.90;85.80;;;;;;5111691;28;20445;-76
2022/02/14 12:44:48;;;;;;;9.93;9.50;;;14.70;86.30;;;;;;5111793;28;20536;-77
2022/02/14 12:47:17;;;;;;;10.97;10.37;;;14.70;86.80;;;;;;5111346;27;20524;-76
2022/02/14 12:50:04;;;;;;;10.20;9.70;;;14.70;87.40;;;;;;5111258;28;20441;-76
2022/02/14 12:52:31;;;;;;;10.43;9.67;;;14.70;88.00;;;;;;5111308;28;20491;-77
2022/02/14 12:55:00;;;;;;;9.93;9.43;;;14.60;88.00;;;;;;5111212;27;20502;-77
2022/02/14 12:57:41;;;;;;;10.17;9.57;;;14.50;88.50;;;;;;5111123;28;20480;-76
2022/02/14 13:00:27;;;;;;;9.50;9.10;;;14.40;88.90;;;;;;5111094;28;20453;-77
2022/02/14 13:02:55;;;;;;;10.97;9.87;;;14.50;88.90;;;;;;5110800;28;20548;-77
2022/02/14 13:05:22;;;;;;;10.03;9.50;;;14.50;89.60;;;;;;5110853;28;20456;-78
2022/02/14 13:07:49;;;;;;;9.90;9.50;;;14.50;90.00;;;;;;5111242;28;20463;-76
2022/02/14 13:10:18;;;;;;;9.40;9.00;;;14.50;90.00;;;;;;5110736;28;20473;-77
2022/02/14 13:12:46;;;;;;;9.13;8.67;;;14.50;90.00;;;;;;5110971;28;20920;-78
2022/02/14 13:15:14;;;;;;;10.03;9.63;;;14.40;90.10;;;;;;5110837;28;20446;-77
2022/02/14 13:17:40;;;;;;;9.90;9.50;;;14.40;90.40;;;;;;5110568;28;20904;-77
2022/02/14 13:20:08;;;;;;;10.37;9.23;;;14.40;90.00;;;;;;5110464;28;20472;-77
2022/02/14 13:22:38;;;;;;;10.33;9.83;;;14.40;90.10;;;;;;5110704;28;20944;-77
2022/02/14 13:25:18;;;;;;;11.07;10.37;;;14.50;90.20;;;;;;5110669;28;20811;-77
2022/02/14 13:27:48;;;;;;;10.13;9.73;;;14.50;90.10;;;;;;5110681;28;20971;-77
2022/02/14 13:30:16;;;;;;;10.00;9.50;;;14.30;90.40;;;;;;5111371;28;20457;-77
2022/02/14 13:32:45;;;;;;;9.30;8.80;;;14.10;90.80;;;;;;5115710;28;20445;-76
2022/02/14 13:35:13;;;;;;;10.00;9.30;;;14.10;91.00;;;;;;5116188;28;20449;-77
2022/02/14 13:37:41;;;;;;;10.50;10.10;;;14.20;90.90;;;;;;5115777;28;20484;-76
2022/02/14 13:40:24;;;;;;;9.63;9.10;;;14.20;90.70;;;;;;5114146;28;20520;-76
2022/02/14 13:42:54;;;;;;;9.43;9.10;;;14.20;90.80;;;;;;5110692;28;20441;-77
2022/02/14 13:45:20;;;;;;;9.67;9.30;;;14.40;90.70;;;;;;5110605;28;21057;-76
2022/02/14 13:47:47;;;;;;;10.57;9.93;;;14.30;90.90;;;;;;5110670;28;20449;-76
2022/02/14 13:50:25;;;;;;;9.90;9.40;;;14.30;91.00;;;;;;5110179;28;20488;-76
2022/02/14 13:52:52;;;;;;;9.90;9.37;;;14.40;91.10;;;;;;5110005;28;20453;-76
2022/02/14 13:55:22;;;;;;;10.17;9.50;;;14.60;90.70;;;;;;5110480;28;20827;-76
2022/02/14 13:57:50;;;;;;;10.63;10.00;;;14.70;90.70;;;;;;5110485;28;20549;-76
2022/02/14 14:00:39;;;;;;;10.90;10.30;;;14.70;90.40;;;;;;5110403;28;20456;-76
2022/02/14 14:03:07;;;;;;;9.60;9.00;;;14.50;90.60;;;;;;5110208;28;20475;-77
2022/02/14 14:05:39;;;;;;;10.60;9.87;;;14.30;90.90;;;;;;5110236;28;20449;-76
2022/02/14 14:08:07;;;;;;;10.67;10.13;;;14.20;91.20;;;;;;5110219;28;20459;-76
2022/02/14 14:10:41;;;;;;;10.10;9.70;;;14.20;91.30;;;;;;5110147;28;20477;-75
2022/02/14 14:13:09;;;;;;;9.73;9.33;;;14.10;91.50;;;;;;5110281;28;20470;-76
2022/02/14 14:15:38;;;;;;;9.60;9.20;;;13.90;91.70;;;;;;5109995;28;20449;-75
2022/02/14 14:18:05;;;;;;;10.10;9.40;;;13.90;91.90;;;;;;5110108;28;20449;-75
2022/02/14 14:20:32;;;;;;;9.67;9.17;;;13.80;92.00;;;;;;5110258;28;20445;-76
2022/02/14 14:22:59;;;;;;;8.70;8.30;;;13.80;92.10;;;;;;5109877;28;20449;-75
2022/02/14 14:25:28;;;;;;;10.20;9.50;;;13.70;92.30;;;;;;5109875;28;20453;-76
2022/02/14 14:27:55;;;;;;;12.37;11.63;;;13.70;92.30;;;;;;5109890;28;20630;-76
2022/02/14 14:30:22;;;;;;;11.03;10.27;;;13.80;92.40;;;;;;5109927;28;20484;-75
2022/02/14 14:32:51;;;;;;;10.23;9.60;;;13.80;92.50;;;;;;5110197;28;20445;-76
2022/02/14 14:35:21;;;;;;;10.10;9.60;;;13.70;92.80;;;;;;5110142;28;20794;-77
2022/02/14 14:37:48;;;;;;;10.67;10.10;;;13.60;93.10;;;;;;5109886;28;20462;-76
2022/02/14 14:40:16;;;;;;;10.67;10.07;;;13.60;93.50;;;;;;5109742;28;20940;-76
2022/02/14 14:42:43;;;;;;;10.13;9.30;;;13.30;94.40;;;;;;5109766;28;20531;-75
2022/02/14 14:45:10;;;;;;;9.73;9.13;;;13.20;95.30;;;;;;5109628;28;20960;-76
2022/02/14 14:47:37;;;;;;;10.47;9.97;;;13.10;95.50;;;;;;5112506;28;20537;-75
2022/02/14 14:50:07;;;;;;;9.57;9.03;;;13.10;95.50;;;;;;5113959;28;20494;-75
2022/02/14 14:52:34;;;;;;;9.30;8.90;;;13.00;95.70;;;;;;5113699;28;20488;-76
2022/02/14 14:55:01;;;;;;;9.30;8.70;;;13.00;95.80;;;;;;5113716;28;20507;-75
2022/02/14 14:57:28;;;;;;;10.87;10.20;;;13.00;96.40;;;;;;5113506;28;20483;-75
2022/02/14 14:59:55;;;;;;;9.47;9.00;;;12.90;96.90;;;;;;5113413;28;20799;-76
2022/02/14 15:02:23;;;;;;;9.37;9.07;;;12.80;97.10;;;;;;5113229;28;20552;-75
2022/02/14 15:04:55;;;;;;;9.47;9.00;;;12.90;97.70;;;;;;5113725;28;20449;-76
2022/02/14 15:07:23;;;;;;;10.13;9.60;;;12.80;97.50;;;;;;5113399;28;20449;-75
2022/02/14 15:09:50;;;;;;;9.40;9.00;;;12.90;97.60;;;;;;5113366;28;21253;-74
2022/02/14 15:12:17;;;;;;;9.13;8.73;;;12.90;97.40;;;;;;5113452;28;20491;-75
2022/02/14 15:14:44;;;;;;;8.17;7.87;;;12.90;97.30;;;;;;5113107;28;20506;-75
2022/02/14 15:17:11;;;;;;;9.57;9.13;;;13.00;97.60;;;;;;5112968;28;20685;-75
2022/02/14 15:19:39;;;;;;;9.50;9.00;;;13.00;97.30;;;;;;5113007;28;20457;-75
2022/02/14 15:22:06;;;;;;;9.70;9.30;;;13.00;97.40;;;;;;5113065;27;20472;-75
2022/02/14 15:24:35;;;;;;;9.70;9.30;;;13.00;97.60;;;;;;5113208;28;20873;-75
2022/02/14 15:27:02;;;;;;;10.67;9.77;;;12.90;97.70;;;;;;5113165;28;20449;-75
2022/02/14 15:29:28;;;;;;;10.53;9.77;;;12.90;97.80;;;;;;5112885;28;20449;-74
2022/02/14 15:31:55;;;;;;;10.00;9.60;;;12.80;98.00;;;;;;5112665;28;20613;-75
2022/02/14 15:34:23;;;;;;;9.73;9.13;;;12.70;98.20;;;;;;5112697;27;20453;-75
2022/02/14 15:36:50;;;;;;;10.10;9.60;;;12.80;98.20;;;;;;5112993;28;20452;-74
2022/02/14 15:39:17;;;;;;;10.67;10.07;;;12.70;98.40;;;;;;5112983;28;20452;-75
2022/02/14 15:41:45;;;;;;;8.63;8.30;;;12.70;98.70;;;;;;5112829;28;20445;-75
2022/02/14 15:44:12;;;;;;;9.50;9.10;;;12.60;99.30;;;;;;5112587;28;20453;-76
2022/02/14 15:46:39;;;;;;;10.40;9.90;;;12.60;99.80;;;;;;5112414;28;20473;-75
2022/02/14 15:49:06;;;;;;;9.90;9.53;;;12.50;99.70;;;;;;5112722;28;20522;-76
2022/02/14 15:51:33;;;;;;;9.90;9.50;;;12.50;99.90;;;;;;5112573;28;20485;-75
2022/02/14 15:54:02;;;;;;;9.90;9.50;;;12.60;99.90;;;;;;5112510;28;20481;-76
2022/02/14 15:56:29;;;;;;;10.60;10.20;;;12.60;99.90;;;;;;5112271;28;20450;-75
2022/02/14 15:58:57;;;;;;;11.10;10.70;;;12.50;99.90;;;;;;5112069;28;20453;-75
2022/02/14 16:01:23;;;;;;;9.70;9.30;;;12.30;99.90;;;;;;5112056;28;20446;-75
2022/02/14 16:03:52;;;;;;;10.97;10.37;;;12.20;99.90;;;;;;5112319;27;20475;-76
2022/02/14 16:06:18;;;;;;;10.90;10.50;;;12.10;99.90;;;;;;5112450;28;20449;-76
2022/02/14 16:08:45;;;;;;;10.77;10.27;;;11.90;99.90;;;;;;5112067;28;20457;-75
2022/02/14 16:11:12;;;;;;;10.33;9.90;;;11.80;99.90;;;;;;5111694;27;20481;-76
2022/02/14 16:13:38;;;;;;;9.87;9.47;;;11.70;99.90;;;;;;5113967;28;20446;-75
2022/02/14 16:16:07;;;;;;;9.30;9.00;;;11.70;99.90;;;;;;5112545;28;20441;-75
2022/02/14 16:18:33;;;;;;;9.80;9.30;;;11.60;99.90;;;;;;5112277;28;20507;-75
2022/02/14 16:21:00;;;;;;;9.73;9.33;;;11.70;99.90;;;;;;5112229;27;20519;-75
2022/02/14 16:23:28;;;;;;;9.90;9.10;;;11.70;99.90;;;;;;5112045;28;20765;-75
2022/02/14 16:25:54;;;;;;;10.23;9.80;;;11.70;99.90;;;;;;5111734;28;20447;-75
2022/02/14 16:28:22;;;;;;;9.90;9.47;;;11.80;99.90;;;;;;5111945;28;20453;-75
2022/02/14 16:30:49;;;;;;;10.40;9.80;;;11.60;99.90;;;;;;5112175;28;20449;-75
2022/02/14 16:33:17;;;;;;;9.70;9.30;;;11.60;99.90;;;;;;5111634;28;20892;-75
2022/02/14 16:35:44;;;;;;;10.30;9.77;;;11.60;99.90;;;;;;5111548;28;20522;-75
2022/02/14 16:38:11;;;;;;;11.77;10.63;;;11.60;99.90;;;;;;5111455;27;20560;-75
2022/02/14 16:40:40;;;;;;;10.53;9.93;;;11.60;99.90;;;;;;5111472;28;20826;-75
2022/02/14 16:43:06;;;;;;;10.37;9.87;;;11.60;99.90;;;;;;5111450;28;20456;-75
2022/02/14 16:45:33;;;;;;;10.40;9.63;;;11.50;99.90;;;;;;5111554;28;20456;-75
2022/02/14 16:48:00;;;;;;;11.23;10.63;;;11.50;99.90;;;;;;5111350;28;20534;-75
2022/02/14 16:50:28;;;;;;;9.90;9.50;;;11.50;99.90;;;;;;5111312;28;20450;-75
2022/02/14 16:52:56;;;;;;;8.87;8.37;;;11.40;99.90;;;;;;5111038;28;20553;-75
2022/02/14 16:55:23;;;;;;;9.90;9.40;;;11.50;99.90;;;;;;5111119;28;21005;-75
2022/02/14 16:57:50;;;;;;;9.20;8.90;;;11.40;99.90;;;;;;5111338;28;20445;-75
2022/02/14 17:00:20;;;;;;;9.00;8.70;;;11.40;99.90;;;;;;5111307;28;20460;-75
2022/02/14 17:02:47;;;;;;;9.80;9.30;;;11.40;99.90;;;;;;5111398;28;20476;-74
2022/02/14 17:05:15;;;;;;;9.17;8.67;;;11.30;99.90;;;;;;5111182;28;20446;-75
2022/02/14 17:07:44;;;;;;;9.40;9.00;;;11.30;99.90;;;;;;5111068;28;20585;-75
2022/02/14 17:10:11;;;;;;;9.73;9.30;;;11.30;99.90;;;;;;5110255;28;20718;-75
2022/02/14 17:12:38;;;;;;;7.50;7.10;;;11.20;99.90;;;;;;5111030;28;20530;-76
2022/02/14 17:15:06;;;;;;;9.20;8.90;;;11.10;99.90;;;;;;5110956;27;20507;-74
2022/02/14 17:17:33;;;;;;;9.30;8.80;;;11.10;99.90;;;;;;5110941;28;20448;-77
2022/02/14 17:20:00;;;;;;;9.20;8.80;;;11.00;99.90;;;;;;5110766;28;20449;-76
2022/02/14 17:22:26;;;;;;;9.03;8.53;;;11.10;99.90;;;;;;5110610;28;20506;-77
2022/02/14 17:24:54;;;;;;;9.30;8.90;;;11.10;99.90;;;;;;5110546;28;20649;-77
2022/02/14 17:27:21;;;;;;;9.27;8.70;;;11.00;99.90;;;;;;5110608;28;20453;-76
2022/02/14 17:29:48;;;;;;;8.10;7.80;;;11.00;99.90;;;;;;5110778;28;20438;-77
2022/02/14 17:32:14;;;;;;;8.73;8.33;;;10.90;99.90;;;;;;5110540;28;20485;-76
2022/02/14 17:34:41;;;;;;;8.90;8.57;;;11.00;99.90;;;;;;5110190;28;20456;-76
2022/02/14 17:37:08;;;;;;;8.70;8.30;;;10.90;99.90;;;;;;5110392;28;20450;-76
2022/02/14 17:39:37;;;;;;;8.57;8.27;;;10.90;99.90;;;;;;5110675;28;20449;-75
2022/02/14 17:42:06;;;;;;;8.50;8.20;;;10.80;99.90;;;;;;5110662;28;20956;-76
2022/02/14 17:44:33;;;;;;;8.93;8.53;;;10.80;99.90;;;;;;5110337;28;20452;-76
2022/02/14 17:47:00;;;;;;;8.80;8.37;;;10.70;99.90;;;;;;5110278;28;20941;-76
2022/02/14 17:49:27;;;;;;;9.30;8.97;;;10.80;99.90;;;;;;5110181;28;20532;-76
2022/02/14 17:51:53;;;;;;;10.83;10.23;;;10.80;99.90;;;;;;5110109;28;20484;-76
2022/02/14 17:54:20;;;;;;;12.10;11.50;;;10.80;99.90;;;;;;5110417;28;20449;-76
2022/02/14 17:56:48;;;;;;;13.00;12.30;;;10.70;99.90;;;;;;5110402;28;20449;-76
